sensor_id;sensor_type;location;lat;lon;timestamp;P1;durP1;ratioP1;P2;durP2;ratioP2
16075;SDS011;8142;48.242;11.644;2022-11-14T00:02:11;14.87;;;11.33;;
16075;SDS011;8142;48.242;11.644;2022-11-14T00:04:36;15.60;;;11.73;;
16075;SDS011;8142;48.242;11.644;2022-11-14T00:07:02;15.23;;;11.70;;
16075;SDS011;8142;48.242;11.644;2022-11-14T00:09:28;15.13;;;11.43;;
16075;SDS011;8142;48.242;11.644;2022-11-14T00:11:54;15.03;;;10.97;;
16075;SDS011;8142;48.242;11.644;2022-11-14T00:14:20;13.23;;;10.87;;
16075;SDS011;8142;48.242;11.644;2022-11-14T00:16:46;15.13;;;11.47;;
16075;SDS011;8142;48.242;11.644;2022-11-14T00:19:12;15.20;;;11.40;;
16075;SDS011;8142;48.242;11.644;2022-11-14T00:21:38;15.20;;;11.20;;
16075;SDS011;8142;48.242;11.644;2022-11-14T00:24:04;15.30;;;11.00;;
16075;SDS011;8142;48.242;11.644;2022-11-14T00:26:30;15.60;;;11.67;;
16075;SDS011;8142;48.242;11.644;2022-11-14T00:28:56;15.53;;;11.93;;
16075;SDS011;8142;48.242;11.644;2022-11-14T00:31:22;15.27;;;11.40;;
16075;SDS011;8142;48.242;11.644;2022-11-14T00:33:48;14.60;;;11.50;;
16075;SDS011;8142;48.242;11.644;2022-11-14T00:36:13;15.03;;;11.87;;
16075;SDS011;8142;48.242;11.644;2022-11-14T00:38:39;15.97;;;12.10;;
16075;SDS011;8142;48.242;11.644;2022-11-14T00:41:05;17.33;;;12.13;;
16075;SDS011;8142;48.242;11.644;2022-11-14T00:43:31;16.27;;;11.93;;
16075;SDS011;8142;48.242;11.644;2022-11-14T00:45:57;14.97;;;11.53;;
16075;SDS011;8142;48.242;11.644;2022-11-14T00:48:23;15.63;;;11.70;;
16075;SDS011;8142;48.242;11.644;2022-11-14T00:50:48;15.77;;;11.73;;
16075;SDS011;8142;48.242;11.644;2022-11-14T00:53:14;17.47;;;12.67;;
16075;SDS011;8142;48.242;11.644;2022-11-14T00:55:41;15.67;;;11.97;;
16075;SDS011;8142;48.242;11.644;2022-11-14T00:58:07;16.07;;;11.27;;
16075;SDS011;8142;48.242;11.644;2022-11-14T01:00:35;15.10;;;11.23;;
16075;SDS011;8142;48.242;11.644;2022-11-14T01:03:01;15.63;;;11.37;;
16075;SDS011;8142;48.242;11.644;2022-11-14T01:05:27;15.80;;;11.73;;
16075;SDS011;8142;48.242;11.644;2022-11-14T01:07:53;14.10;;;10.83;;
16075;SDS011;8142;48.242;11.644;2022-11-14T01:10:19;14.17;;;10.97;;
16075;SDS011;8142;48.242;11.644;2022-11-14T01:12:45;14.10;;;10.60;;
16075;SDS011;8142;48.242;11.644;2022-11-14T01:15:11;14.03;;;10.67;;
16075;SDS011;8142;48.242;11.644;2022-11-14T01:17:37;13.53;;;10.47;;
16075;SDS011;8142;48.242;11.644;2022-11-14T01:20:03;12.93;;;10.10;;
16075;SDS011;8142;48.242;11.644;2022-11-14T01:22:30;15.73;;;11.20;;
16075;SDS011;8142;48.242;11.644;2022-11-14T01:24:56;13.77;;;10.50;;
16075;SDS011;8142;48.242;11.644;2022-11-14T01:27:23;13.27;;;10.53;;
16075;SDS011;8142;48.242;11.644;2022-11-14T01:29:49;14.37;;;10.73;;
16075;SDS011;8142;48.242;11.644;2022-11-14T01:32:15;15.43;;;11.23;;
16075;SDS011;8142;48.242;11.644;2022-11-14T01:34:41;12.70;;;10.23;;
16075;SDS011;8142;48.242;11.644;2022-11-14T01:37:07;14.10;;;10.63;;
16075;SDS011;8142;48.242;11.644;2022-11-14T01:39:33;13.43;;;9.90;;
16075;SDS011;8142;48.242;11.644;2022-11-14T01:41:59;12.70;;;10.37;;
16075;SDS011;8142;48.242;11.644;2022-11-14T01:47:21;14.27;;;10.43;;
16075;SDS011;8142;48.242;11.644;2022-11-14T01:49:58;12.73;;;10.03;;
16075;SDS011;8142;48.242;11.644;2022-11-14T01:54:54;13.33;;;10.33;;
16075;SDS011;8142;48.242;11.644;2022-11-14T01:57:24;13.67;;;10.73;;
16075;SDS011;8142;48.242;11.644;2022-11-14T01:59:54;15.10;;;10.90;;
16075;SDS011;8142;48.242;11.644;2022-11-14T02:02:24;13.90;;;10.57;;
16075;SDS011;8142;48.242;11.644;2022-11-14T02:04:52;16.03;;;11.20;;
16075;SDS011;8142;48.242;11.644;2022-11-14T02:07:21;14.40;;;10.80;;
16075;SDS011;8142;48.242;11.644;2022-11-14T02:09:49;14.17;;;10.87;;
16075;SDS011;8142;48.242;11.644;2022-11-14T02:12:17;14.40;;;10.77;;
16075;SDS011;8142;48.242;11.644;2022-11-14T02:14:44;14.70;;;10.63;;
16075;SDS011;8142;48.242;11.644;2022-11-14T02:17:12;14.27;;;11.30;;
16075;SDS011;8142;48.242;11.644;2022-11-14T02:19:43;13.83;;;10.80;;
16075;SDS011;8142;48.242;11.644;2022-11-14T02:22:11;14.60;;;11.17;;
16075;SDS011;8142;48.242;11.644;2022-11-14T02:24:37;15.90;;;11.53;;
16075;SDS011;8142;48.242;11.644;2022-11-14T02:27:03;16.23;;;11.97;;
16075;SDS011;8142;48.242;11.644;2022-11-14T02:29:31;18.17;;;12.43;;
16075;SDS011;8142;48.242;11.644;2022-11-14T02:31:58;16.53;;;11.83;;
16075;SDS011;8142;48.242;11.644;2022-11-14T02:34:24;16.87;;;12.07;;
16075;SDS011;8142;48.242;11.644;2022-11-14T02:36:50;15.00;;;10.97;;
16075;SDS011;8142;48.242;11.644;2022-11-14T02:39:15;17.00;;;12.17;;
16075;SDS011;8142;48.242;11.644;2022-11-14T02:41:41;16.50;;;11.60;;
16075;SDS011;8142;48.242;11.644;2022-11-14T02:44:07;13.90;;;11.13;;
16075;SDS011;8142;48.242;11.644;2022-11-14T02:46:33;14.43;;;11.13;;
16075;SDS011;8142;48.242;11.644;2022-11-14T02:48:59;13.67;;;10.33;;
16075;SDS011;8142;48.242;11.644;2022-11-14T02:51:25;14.43;;;10.90;;
16075;SDS011;8142;48.242;11.644;2022-11-14T02:53:50;12.93;;;10.20;;
16075;SDS011;8142;48.242;11.644;2022-11-14T02:56:16;14.10;;;10.83;;
16075;SDS011;8142;48.242;11.644;2022-11-14T02:58:42;14.83;;;11.27;;
16075;SDS011;8142;48.242;11.644;2022-11-14T03:01:08;13.10;;;10.03;;
16075;SDS011;8142;48.242;11.644;2022-11-14T03:03:34;14.50;;;11.13;;
16075;SDS011;8142;48.242;11.644;2022-11-14T03:06:00;13.30;;;10.37;;
16075;SDS011;8142;48.242;11.644;2022-11-14T03:08:26;14.37;;;11.03;;
16075;SDS011;8142;48.242;11.644;2022-11-14T03:10:53;15.27;;;11.40;;
16075;SDS011;8142;48.242;11.644;2022-11-14T03:13:19;14.43;;;11.03;;
16075;SDS011;8142;48.242;11.644;2022-11-14T03:15:45;13.70;;;10.47;;
16075;SDS011;8142;48.242;11.644;2022-11-14T03:18:11;14.60;;;10.87;;
16075;SDS011;8142;48.242;11.644;2022-11-14T03:20:37;14.37;;;10.53;;
16075;SDS011;8142;48.242;11.644;2022-11-14T03:23:04;13.70;;;10.57;;
16075;SDS011;8142;48.242;11.644;2022-11-14T03:25:30;13.93;;;10.73;;
16075;SDS011;8142;48.242;11.644;2022-11-14T03:27:56;13.27;;;9.90;;
16075;SDS011;8142;48.242;11.644;2022-11-14T03:30:22;12.47;;;9.60;;
16075;SDS011;8142;48.242;11.644;2022-11-14T03:32:47;13.07;;;10.07;;
16075;SDS011;8142;48.242;11.644;2022-11-14T03:35:13;12.67;;;9.70;;
16075;SDS011;8142;48.242;11.644;2022-11-14T03:37:39;12.20;;;10.03;;
16075;SDS011;8142;48.242;11.644;2022-11-14T03:40:05;12.40;;;9.80;;
16075;SDS011;8142;48.242;11.644;2022-11-14T03:42:32;11.73;;;9.53;;
16075;SDS011;8142;48.242;11.644;2022-11-14T03:44:59;11.57;;;9.07;;
16075;SDS011;8142;48.242;11.644;2022-11-14T03:47:25;10.93;;;9.10;;
16075;SDS011;8142;48.242;11.644;2022-11-14T03:49:50;11.87;;;9.17;;
16075;SDS011;8142;48.242;11.644;2022-11-14T03:52:16;11.40;;;8.93;;
16075;SDS011;8142;48.242;11.644;2022-11-14T03:54:42;11.77;;;9.47;;
16075;SDS011;8142;48.242;11.644;2022-11-14T03:57:08;10.47;;;8.70;;
16075;SDS011;8142;48.242;11.644;2022-11-14T03:59:34;10.63;;;8.60;;
16075;SDS011;8142;48.242;11.644;2022-11-14T04:02:00;10.27;;;8.23;;
16075;SDS011;8142;48.242;11.644;2022-11-14T04:04:26;9.97;;;7.60;;
16075;SDS011;8142;48.242;11.644;2022-11-14T04:06:52;9.40;;;7.80;;
16075;SDS011;8142;48.242;11.644;2022-11-14T04:09:17;9.47;;;7.97;;
16075;SDS011;8142;48.242;11.644;2022-11-14T04:11:43;8.87;;;7.57;;
16075;SDS011;8142;48.242;11.644;2022-11-14T04:14:09;9.10;;;7.53;;
16075;SDS011;8142;48.242;11.644;2022-11-14T04:16:35;10.77;;;9.20;;
16075;SDS011;8142;48.242;11.644;2022-11-14T04:19:01;11.57;;;9.53;;
16075;SDS011;8142;48.242;11.644;2022-11-14T04:21:27;10.93;;;8.93;;
16075;SDS011;8142;48.242;11.644;2022-11-14T04:23:52;12.20;;;9.77;;
16075;SDS011;8142;48.242;11.644;2022-11-14T04:26:18;12.87;;;9.90;;
16075;SDS011;8142;48.242;11.644;2022-11-14T04:28:44;11.97;;;9.53;;
16075;SDS011;8142;48.242;11.644;2022-11-14T04:31:10;13.00;;;10.50;;
16075;SDS011;8142;48.242;11.644;2022-11-14T04:33:36;14.50;;;10.87;;
16075;SDS011;8142;48.242;11.644;2022-11-14T04:36:02;13.47;;;10.43;;
16075;SDS011;8142;48.242;11.644;2022-11-14T04:38:28;13.93;;;10.50;;
16075;SDS011;8142;48.242;11.644;2022-11-14T04:40:53;14.37;;;10.53;;
16075;SDS011;8142;48.242;11.644;2022-11-14T04:43:19;13.97;;;10.67;;
16075;SDS011;8142;48.242;11.644;2022-11-14T04:45:45;15.90;;;11.40;;
16075;SDS011;8142;48.242;11.644;2022-11-14T04:48:11;13.87;;;10.53;;
16075;SDS011;8142;48.242;11.644;2022-11-14T04:50:37;14.23;;;10.60;;
16075;SDS011;8142;48.242;11.644;2022-11-14T04:53:03;13.37;;;10.10;;
16075;SDS011;8142;48.242;11.644;2022-11-14T04:55:30;12.67;;;9.70;;
16075;SDS011;8142;48.242;11.644;2022-11-14T04:57:56;13.57;;;10.00;;
16075;SDS011;8142;48.242;11.644;2022-11-14T05:00:23;12.67;;;9.67;;
16075;SDS011;8142;48.242;11.644;2022-11-14T05:02:49;14.20;;;10.17;;
16075;SDS011;8142;48.242;11.644;2022-11-14T05:05:15;13.33;;;9.93;;
16075;SDS011;8142;48.242;11.644;2022-11-14T05:07:41;13.17;;;10.37;;
16075;SDS011;8142;48.242;11.644;2022-11-14T05:10:07;13.20;;;10.00;;
16075;SDS011;8142;48.242;11.644;2022-11-14T05:12:34;13.93;;;10.67;;
16075;SDS011;8142;48.242;11.644;2022-11-14T05:15:00;14.43;;;10.07;;
16075;SDS011;8142;48.242;11.644;2022-11-14T05:17:26;13.90;;;10.07;;
16075;SDS011;8142;48.242;11.644;2022-11-14T05:19:52;14.07;;;10.53;;
16075;SDS011;8142;48.242;11.644;2022-11-14T05:22:18;13.93;;;9.70;;
16075;SDS011;8142;48.242;11.644;2022-11-14T05:24:44;12.73;;;9.87;;
16075;SDS011;8142;48.242;11.644;2022-11-14T05:27:10;13.43;;;9.83;;
16075;SDS011;8142;48.242;11.644;2022-11-14T05:29:35;13.07;;;9.80;;
16075;SDS011;8142;48.242;11.644;2022-11-14T05:32:01;12.83;;;9.57;;
16075;SDS011;8142;48.242;11.644;2022-11-14T05:34:27;14.53;;;10.20;;
16075;SDS011;8142;48.242;11.644;2022-11-14T05:36:53;15.93;;;11.63;;
16075;SDS011;8142;48.242;11.644;2022-11-14T05:39:19;16.27;;;11.83;;
16075;SDS011;8142;48.242;11.644;2022-11-14T05:41:45;17.97;;;12.13;;
16075;SDS011;8142;48.242;11.644;2022-11-14T05:44:11;18.13;;;13.00;;
16075;SDS011;8142;48.242;11.644;2022-11-14T05:46:37;18.10;;;13.23;;
16075;SDS011;8142;48.242;11.644;2022-11-14T05:49:03;17.87;;;12.53;;
16075;SDS011;8142;48.242;11.644;2022-11-14T05:51:28;18.27;;;12.87;;
16075;SDS011;8142;48.242;11.644;2022-11-14T05:53:54;18.33;;;12.93;;
16075;SDS011;8142;48.242;11.644;2022-11-14T05:56:20;17.50;;;12.70;;
16075;SDS011;8142;48.242;11.644;2022-11-14T05:58:46;15.47;;;11.37;;
16075;SDS011;8142;48.242;11.644;2022-11-14T06:01:16;15.20;;;12.00;;
16075;SDS011;8142;48.242;11.644;2022-11-14T06:03:44;14.90;;;11.30;;
16075;SDS011;8142;48.242;11.644;2022-11-14T06:06:15;13.23;;;10.03;;
16075;SDS011;8142;48.242;11.644;2022-11-14T06:08:42;11.37;;;9.23;;
16075;SDS011;8142;48.242;11.644;2022-11-14T06:11:09;12.63;;;9.53;;
16075;SDS011;8142;48.242;11.644;2022-11-14T06:13:39;11.67;;;9.53;;
16075;SDS011;8142;48.242;11.644;2022-11-14T06:16:07;13.00;;;10.67;;
16075;SDS011;8142;48.242;11.644;2022-11-14T06:18:35;12.07;;;9.70;;
16075;SDS011;8142;48.242;11.644;2022-11-14T06:21:03;12.43;;;9.23;;
16075;SDS011;8142;48.242;11.644;2022-11-14T06:23:34;11.93;;;9.73;;
16075;SDS011;8142;48.242;11.644;2022-11-14T06:26:01;11.27;;;8.90;;
16075;SDS011;8142;48.242;11.644;2022-11-14T06:28:29;13.03;;;9.27;;
16075;SDS011;8142;48.242;11.644;2022-11-14T06:30:56;11.23;;;8.87;;
16075;SDS011;8142;48.242;11.644;2022-11-14T06:33:23;9.87;;;8.70;;
16075;SDS011;8142;48.242;11.644;2022-11-14T06:35:48;12.03;;;9.17;;
16075;SDS011;8142;48.242;11.644;2022-11-14T06:38:14;9.93;;;8.00;;
16075;SDS011;8142;48.242;11.644;2022-11-14T06:40:40;9.57;;;7.67;;
16075;SDS011;8142;48.242;11.644;2022-11-14T06:43:06;9.43;;;7.37;;
16075;SDS011;8142;48.242;11.644;2022-11-14T06:45:32;9.70;;;8.00;;
16075;SDS011;8142;48.242;11.644;2022-11-14T06:47:58;10.23;;;7.87;;
16075;SDS011;8142;48.242;11.644;2022-11-14T06:50:24;9.17;;;7.73;;
16075;SDS011;8142;48.242;11.644;2022-11-14T06:52:50;9.83;;;7.47;;
16075;SDS011;8142;48.242;11.644;2022-11-14T06:55:16;9.17;;;7.30;;
16075;SDS011;8142;48.242;11.644;2022-11-14T06:57:41;8.53;;;6.97;;
16075;SDS011;8142;48.242;11.644;2022-11-14T07:00:07;7.10;;;6.40;;
16075;SDS011;8142;48.242;11.644;2022-11-14T07:02:34;7.40;;;6.63;;
16075;SDS011;8142;48.242;11.644;2022-11-14T07:04:59;9.20;;;7.43;;
16075;SDS011;8142;48.242;11.644;2022-11-14T07:07:25;8.27;;;7.37;;
16075;SDS011;8142;48.242;11.644;2022-11-14T07:09:51;7.93;;;7.13;;
16075;SDS011;8142;48.242;11.644;2022-11-14T07:12:18;7.57;;;6.70;;
16075;SDS011;8142;48.242;11.644;2022-11-14T07:14:44;7.10;;;6.40;;
16075;SDS011;8142;48.242;11.644;2022-11-14T07:17:10;6.70;;;6.00;;
16075;SDS011;8142;48.242;11.644;2022-11-14T07:19:36;9.50;;;7.20;;
16075;SDS011;8142;48.242;11.644;2022-11-14T07:22:02;7.77;;;6.97;;
16075;SDS011;8142;48.242;11.644;2022-11-14T07:24:27;7.33;;;5.80;;
16075;SDS011;8142;48.242;11.644;2022-11-14T07:26:53;6.83;;;5.80;;
16075;SDS011;8142;48.242;11.644;2022-11-14T07:29:19;7.73;;;6.27;;
16075;SDS011;8142;48.242;11.644;2022-11-14T07:31:45;6.90;;;6.20;;
16075;SDS011;8142;48.242;11.644;2022-11-14T07:34:11;7.10;;;6.33;;
16075;SDS011;8142;48.242;11.644;2022-11-14T07:36:37;8.63;;;6.73;;
16075;SDS011;8142;48.242;11.644;2022-11-14T07:39:03;7.87;;;6.77;;
16075;SDS011;8142;48.242;11.644;2022-11-14T07:41:29;7.33;;;6.53;;
16075;SDS011;8142;48.242;11.644;2022-11-14T07:43:55;8.23;;;7.37;;
16075;SDS011;8142;48.242;11.644;2022-11-14T07:46:21;9.27;;;7.97;;
16075;SDS011;8142;48.242;11.644;2022-11-14T07:48:47;8.27;;;7.37;;
16075;SDS011;8142;48.242;11.644;2022-11-14T07:51:13;9.50;;;7.83;;
16075;SDS011;8142;48.242;11.644;2022-11-14T07:53:41;9.43;;;7.97;;
16075;SDS011;8142;48.242;11.644;2022-11-14T07:56:07;10.03;;;8.60;;
16075;SDS011;8142;48.242;11.644;2022-11-14T07:58:37;10.30;;;8.53;;
16075;SDS011;8142;48.242;11.644;2022-11-14T08:01:04;12.47;;;9.50;;
16075;SDS011;8142;48.242;11.644;2022-11-14T08:03:32;10.57;;;8.90;;
16075;SDS011;8142;48.242;11.644;2022-11-14T08:05:59;12.60;;;9.97;;
16075;SDS011;8142;48.242;11.644;2022-11-14T08:08:25;12.37;;;10.10;;
16075;SDS011;8142;48.242;11.644;2022-11-14T08:10:54;14.20;;;10.17;;
16075;SDS011;8142;48.242;11.644;2022-11-14T08:13:20;11.90;;;9.90;;
16075;SDS011;8142;48.242;11.644;2022-11-14T08:15:46;12.70;;;9.50;;
16075;SDS011;8142;48.242;11.644;2022-11-14T08:18:12;11.90;;;9.43;;
16075;SDS011;8142;48.242;11.644;2022-11-14T08:20:38;11.43;;;9.10;;
16075;SDS011;8142;48.242;11.644;2022-11-14T08:23:04;11.53;;;9.10;;
16075;SDS011;8142;48.242;11.644;2022-11-14T08:25:31;11.00;;;9.10;;
16075;SDS011;8142;48.242;11.644;2022-11-14T08:27:57;9.17;;;7.73;;
16075;SDS011;8142;48.242;11.644;2022-11-14T08:30:23;10.00;;;8.17;;
16075;SDS011;8142;48.242;11.644;2022-11-14T08:32:49;9.60;;;7.47;;
16075;SDS011;8142;48.242;11.644;2022-11-14T08:35:15;9.40;;;7.83;;
16075;SDS011;8142;48.242;11.644;2022-11-14T08:37:41;8.30;;;7.10;;
16075;SDS011;8142;48.242;11.644;2022-11-14T08:40:07;8.87;;;7.50;;
16075;SDS011;8142;48.242;11.644;2022-11-14T08:42:33;8.23;;;6.70;;
16075;SDS011;8142;48.242;11.644;2022-11-14T08:44:59;8.23;;;6.70;;
16075;SDS011;8142;48.242;11.644;2022-11-14T08:47:25;8.03;;;6.80;;
16075;SDS011;8142;48.242;11.644;2022-11-14T08:49:50;8.13;;;6.90;;
16075;SDS011;8142;48.242;11.644;2022-11-14T08:52:16;7.00;;;5.97;;
16075;SDS011;8142;48.242;11.644;2022-11-14T08:54:42;7.83;;;6.80;;
16075;SDS011;8142;48.242;11.644;2022-11-14T08:57:08;7.37;;;6.40;;
16075;SDS011;8142;48.242;11.644;2022-11-14T08:59:36;7.13;;;6.43;;
16075;SDS011;8142;48.242;11.644;2022-11-14T09:02:01;7.53;;;6.73;;
16075;SDS011;8142;48.242;11.644;2022-11-14T09:04:27;7.83;;;6.90;;
16075;SDS011;8142;48.242;11.644;2022-11-14T09:06:53;9.00;;;7.30;;
16075;SDS011;8142;48.242;11.644;2022-11-14T09:09:19;8.33;;;6.93;;
16075;SDS011;8142;48.242;11.644;2022-11-14T09:11:45;8.77;;;6.80;;
16075;SDS011;8142;48.242;11.644;2022-11-14T09:14:11;8.33;;;7.30;;
16075;SDS011;8142;48.242;11.644;2022-11-14T09:16:36;9.60;;;7.37;;
16075;SDS011;8142;48.242;11.644;2022-11-14T09:19:02;8.73;;;7.07;;
16075;SDS011;8142;48.242;11.644;2022-11-14T09:21:28;9.37;;;7.53;;
16075;SDS011;8142;48.242;11.644;2022-11-14T09:23:54;8.87;;;7.40;;
16075;SDS011;8142;48.242;11.644;2022-11-14T09:26:20;9.57;;;8.03;;
16075;SDS011;8142;48.242;11.644;2022-11-14T09:28:46;11.10;;;8.07;;
16075;SDS011;8142;48.242;11.644;2022-11-14T09:31:12;10.13;;;7.90;;
16075;SDS011;8142;48.242;11.644;2022-11-14T09:33:38;9.27;;;7.93;;
16075;SDS011;8142;48.242;11.644;2022-11-14T09:36:04;9.50;;;7.40;;
16075;SDS011;8142;48.242;11.644;2022-11-14T09:38:32;10.13;;;7.60;;
16075;SDS011;8142;48.242;11.644;2022-11-14T09:43:31;8.43;;;7.23;;
16075;SDS011;8142;48.242;11.644;2022-11-14T09:45:59;8.03;;;7.03;;
16075;SDS011;8142;48.242;11.644;2022-11-14T09:48:27;10.57;;;7.73;;
16075;SDS011;8142;48.242;11.644;2022-11-14T09:51:08;10.07;;;7.03;;
16075;SDS011;8142;48.242;11.644;2022-11-14T09:53:54;8.97;;;7.53;;
16075;SDS011;8142;48.242;11.644;2022-11-14T09:56:30;8.70;;;7.17;;
16075;SDS011;8142;48.242;11.644;2022-11-14T09:58:56;9.27;;;7.47;;
16075;SDS011;8142;48.242;11.644;2022-11-14T10:12:20;9.47;;;7.43;;
16075;SDS011;8142;48.242;11.644;2022-11-14T10:15:04;10.17;;;7.80;;
16075;SDS011;8142;48.242;11.644;2022-11-14T10:17:54;8.07;;;6.97;;
16075;SDS011;8142;48.242;11.644;2022-11-14T10:23:31;8.43;;;7.27;;
16075;SDS011;8142;48.242;11.644;2022-11-14T10:26:17;9.83;;;8.17;;
16075;SDS011;8142;48.242;11.644;2022-11-14T10:34:32;9.00;;;7.47;;
16075;SDS011;8142;48.242;11.644;2022-11-14T10:37:23;9.00;;;7.40;;
16075;SDS011;8142;48.242;11.644;2022-11-14T10:40:01;8.40;;;7.03;;
16075;SDS011;8142;48.242;11.644;2022-11-14T10:42:40;8.00;;;6.80;;
16075;SDS011;8142;48.242;11.644;2022-11-14T10:45:24;8.57;;;7.63;;
16075;SDS011;8142;48.242;11.644;2022-11-14T10:47:55;8.43;;;6.93;;
16075;SDS011;8142;48.242;11.644;2022-11-14T10:50:36;7.60;;;6.80;;
16075;SDS011;8142;48.242;11.644;2022-11-14T10:53:06;7.90;;;6.87;;
16075;SDS011;8142;48.242;11.644;2022-11-14T10:55:50;8.43;;;6.70;;
16075;SDS011;8142;48.242;11.644;2022-11-14T10:58:19;8.20;;;6.70;;
16075;SDS011;8142;48.242;11.644;2022-11-14T11:00:46;8.27;;;6.97;;
16075;SDS011;8142;48.242;11.644;2022-11-14T11:03:12;8.63;;;7.40;;
16075;SDS011;8142;48.242;11.644;2022-11-14T11:05:46;9.03;;;7.93;;
16075;SDS011;8142;48.242;11.644;2022-11-14T11:08:20;8.80;;;7.80;;
16075;SDS011;8142;48.242;11.644;2022-11-14T11:11:10;10.23;;;7.87;;
16075;SDS011;8142;48.242;11.644;2022-11-14T11:13:56;9.17;;;7.73;;
16075;SDS011;8142;48.242;11.644;2022-11-14T11:16:25;9.30;;;7.50;;
16075;SDS011;8142;48.242;11.644;2022-11-14T11:18:52;9.77;;;8.13;;
16075;SDS011;8142;48.242;11.644;2022-11-14T11:21:19;9.17;;;8.03;;
16075;SDS011;8142;48.242;11.644;2022-11-14T11:23:47;9.80;;;8.40;;
16075;SDS011;8142;48.242;11.644;2022-11-14T11:26:17;9.73;;;8.70;;
16075;SDS011;8142;48.242;11.644;2022-11-14T11:28:59;10.50;;;8.87;;
16075;SDS011;8142;48.242;11.644;2022-11-14T11:34:17;11.50;;;9.67;;
16075;SDS011;8142;48.242;11.644;2022-11-14T11:39:28;13.03;;;10.00;;
16075;SDS011;8142;48.242;11.644;2022-11-14T11:41:57;13.10;;;10.43;;
16075;SDS011;8142;48.242;11.644;2022-11-14T11:44:36;11.97;;;9.80;;
16075;SDS011;8142;48.242;11.644;2022-11-14T11:47:10;11.73;;;9.60;;
16075;SDS011;8142;48.242;11.644;2022-11-14T11:49:44;12.07;;;10.50;;
16075;SDS011;8142;48.242;11.644;2022-11-14T11:55:04;11.10;;;9.47;;
16075;SDS011;8142;48.242;11.644;2022-11-14T11:57:45;12.93;;;10.07;;
16075;SDS011;8142;48.242;11.644;2022-11-14T12:00:34;12.37;;;9.20;;
16075;SDS011;8142;48.242;11.644;2022-11-14T12:03:00;12.10;;;9.80;;
16075;SDS011;8142;48.242;11.644;2022-11-14T12:08:13;10.60;;;9.03;;
16075;SDS011;8142;48.242;11.644;2022-11-14T12:10:56;13.47;;;9.73;;
16075;SDS011;8142;48.242;11.644;2022-11-14T12:22:02;12.10;;;9.60;;
16075;SDS011;8142;48.242;11.644;2022-11-14T12:25:00;12.40;;;9.63;;
16075;SDS011;8142;48.242;11.644;2022-11-14T12:30:25;11.27;;;9.60;;
16075;SDS011;8142;48.242;11.644;2022-11-14T12:32:53;12.93;;;10.67;;
16075;SDS011;8142;48.242;11.644;2022-11-14T12:35:29;11.03;;;9.80;;
16075;SDS011;8142;48.242;11.644;2022-11-14T12:37:58;13.53;;;10.53;;
16075;SDS011;8142;48.242;11.644;2022-11-14T12:40:34;12.17;;;10.17;;
16075;SDS011;8142;48.242;11.644;2022-11-14T12:43:03;13.27;;;10.00;;
16075;SDS011;8142;48.242;11.644;2022-11-14T12:50:50;13.37;;;10.13;;
16075;SDS011;8142;48.242;11.644;2022-11-14T13:09:30;11.13;;;9.00;;
16075;SDS011;8142;48.242;11.644;2022-11-14T13:11:58;9.73;;;8.60;;
16075;SDS011;8142;48.242;11.644;2022-11-14T13:18:18;10.60;;;8.60;;
16075;SDS011;8142;48.242;11.644;2022-11-14T13:21:05;11.57;;;9.30;;
16075;SDS011;8142;48.242;11.644;2022-11-14T13:24:00;10.80;;;9.37;;
16075;SDS011;8142;48.242;11.644;2022-11-14T13:28:56;11.53;;;9.13;;
16075;SDS011;8142;48.242;11.644;2022-11-14T13:33:52;10.17;;;9.03;;
16075;SDS011;8142;48.242;11.644;2022-11-14T13:39:18;9.60;;;8.60;;
16075;SDS011;8142;48.242;11.644;2022-11-14T13:50:34;9.90;;;8.10;;
16075;SDS011;8142;48.242;11.644;2022-11-14T13:53:02;11.67;;;8.87;;
16075;SDS011;8142;48.242;11.644;2022-11-14T14:09:25;11.43;;;9.47;;
16075;SDS011;8142;48.242;11.644;2022-11-14T14:33:42;13.17;;;8.90;;
16075;SDS011;8142;48.242;11.644;2022-11-14T14:36:22;11.67;;;9.20;;
16075;SDS011;8142;48.242;11.644;2022-11-14T14:38:50;12.40;;;9.60;;
16075;SDS011;8142;48.242;11.644;2022-11-14T14:41:57;11.63;;;9.30;;
16075;SDS011;8142;48.242;11.644;2022-11-14T14:44:24;10.90;;;9.17;;
16075;SDS011;8142;48.242;11.644;2022-11-14T14:46:58;13.80;;;9.40;;
16075;SDS011;8142;48.242;11.644;2022-11-14T14:50:12;11.70;;;8.60;;
16075;SDS011;8142;48.242;11.644;2022-11-14T14:52:41;13.13;;;9.23;;
16075;SDS011;8142;48.242;11.644;2022-11-14T14:55:17;10.40;;;8.87;;
16075;SDS011;8142;48.242;11.644;2022-11-14T14:57:45;13.03;;;9.17;;
16075;SDS011;8142;48.242;11.644;2022-11-14T15:00:21;11.47;;;9.10;;
16075;SDS011;8142;48.242;11.644;2022-11-14T15:02:56;12.10;;;9.20;;
16075;SDS011;8142;48.242;11.644;2022-11-14T15:05:27;11.07;;;9.60;;
16075;SDS011;8142;48.242;11.644;2022-11-14T15:07:55;12.77;;;9.67;;
16075;SDS011;8142;48.242;11.644;2022-11-14T15:10:23;11.80;;;9.33;;
16075;SDS011;8142;48.242;11.644;2022-11-14T15:12:54;11.10;;;9.50;;
16075;SDS011;8142;48.242;11.644;2022-11-14T15:15:21;14.63;;;9.67;;
16075;SDS011;8142;48.242;11.644;2022-11-14T15:17:50;13.80;;;9.43;;
16075;SDS011;8142;48.242;11.644;2022-11-14T15:20:23;12.30;;;9.47;;
16075;SDS011;8142;48.242;11.644;2022-11-14T15:25:30;12.00;;;9.20;;
16075;SDS011;8142;48.242;11.644;2022-11-14T15:27:56;12.20;;;9.73;;
16075;SDS011;8142;48.242;11.644;2022-11-14T15:30:31;12.70;;;9.33;;
16075;SDS011;8142;48.242;11.644;2022-11-14T15:33:02;11.37;;;9.10;;
16075;SDS011;8142;48.242;11.644;2022-11-14T15:35:36;11.27;;;8.83;;
16075;SDS011;8142;48.242;11.644;2022-11-14T15:41:09;12.43;;;9.47;;
16075;SDS011;8142;48.242;11.644;2022-11-14T15:48:59;12.57;;;9.50;;
16075;SDS011;8142;48.242;11.644;2022-11-14T15:51:45;13.00;;;9.23;;
16075;SDS011;8142;48.242;11.644;2022-11-14T15:56:46;12.87;;;9.47;;
16075;SDS011;8142;48.242;11.644;2022-11-14T15:59:12;12.63;;;9.60;;
16075;SDS011;8142;48.242;11.644;2022-11-14T16:01:38;13.10;;;9.33;;
16075;SDS011;8142;48.242;11.644;2022-11-14T16:04:07;11.13;;;8.53;;
16075;SDS011;8142;48.242;11.644;2022-11-14T16:06:40;11.13;;;8.10;;
16075;SDS011;8142;48.242;11.644;2022-11-14T16:09:07;10.20;;;7.67;;
16075;SDS011;8142;48.242;11.644;2022-11-14T16:11:43;10.33;;;7.80;;
16075;SDS011;8142;48.242;11.644;2022-11-14T16:14:09;11.03;;;8.60;;
16075;SDS011;8142;48.242;11.644;2022-11-14T16:16:35;10.57;;;8.23;;
16075;SDS011;8142;48.242;11.644;2022-11-14T16:19:01;11.90;;;8.43;;
16075;SDS011;8142;48.242;11.644;2022-11-14T16:21:28;11.83;;;8.77;;
16075;SDS011;8142;48.242;11.644;2022-11-14T16:23:54;11.77;;;8.83;;
16075;SDS011;8142;48.242;11.644;2022-11-14T16:26:20;11.93;;;8.63;;
16075;SDS011;8142;48.242;11.644;2022-11-14T16:28:46;11.73;;;9.10;;
16075;SDS011;8142;48.242;11.644;2022-11-14T16:31:12;12.97;;;9.40;;
16075;SDS011;8142;48.242;11.644;2022-11-14T16:33:38;15.93;;;9.30;;
16075;SDS011;8142;48.242;11.644;2022-11-14T16:36:04;12.37;;;9.47;;
16075;SDS011;8142;48.242;11.644;2022-11-14T16:38:30;11.27;;;8.97;;
16075;SDS011;8142;48.242;11.644;2022-11-14T16:40:56;12.37;;;9.27;;
16075;SDS011;8142;48.242;11.644;2022-11-14T16:43:24;13.50;;;9.93;;
16075;SDS011;8142;48.242;11.644;2022-11-14T16:45:50;13.33;;;9.67;;
16075;SDS011;8142;48.242;11.644;2022-11-14T16:48:16;13.07;;;9.40;;
16075;SDS011;8142;48.242;11.644;2022-11-14T16:50:42;14.13;;;10.10;;
16075;SDS011;8142;48.242;11.644;2022-11-14T16:53:08;13.23;;;10.53;;
16075;SDS011;8142;48.242;11.644;2022-11-14T16:55:33;15.10;;;10.80;;
16075;SDS011;8142;48.242;11.644;2022-11-14T16:57:59;14.57;;;10.70;;
16075;SDS011;8142;48.242;11.644;2022-11-14T17:00:25;16.47;;;11.03;;
16075;SDS011;8142;48.242;11.644;2022-11-14T17:02:51;13.83;;;10.27;;